Aérodrome :
LOGIN :

S'inscrire | Disclaimer

   EN    FR    IT 

 










Légende :    VFR   VFR Marginal   IFR   IFR Intensif   IFR Très Intensif
Visi : 
Plafond : 
>= 8 km
>= 3000ft
5 à 8 km
1000 à 3000 ft
1500m à 5 km
500 à 1000 ft
800 à 1500m
200 à 500 ft
< 800m
< 200 ft
Symboles :   Orages  Brouillard  Fortes neiges  Fortes précipitations  Vent > 20 kt
SIGMETs :   Divers  Orages  Givrage  Turbulence  Onde Orograph.  Cendres Volcan.






- Altitude de l'aérodrome : 202 ft
- Code IATA : LGW


EGKK - London Gatwick

DERNIER METAR :
  • 030950Z 24012KT 9999 SCT033 18/10 Q1017

METARs EXPIRÉS :
  • 030920Z 24012KT 9999 BKN031 17/09 Q1017
  • 030850Z 23012KT 9999 FEW031 17/10 Q1017
  • 030820Z 25011KT 220V290 9999 SCT021 16/11 Q1017
  • 030750Z 24012KT 9999 SCT017 15/11 Q1017
  • 030720Z 24008KT 190V260 9999 FEW016 15/11 Q1017

TAF TAF EGKK
Valide du 03 à 06h jusqu'au 04 à 12h UTC


030457Z 0306/0412 23008KT 9999 SCT040
BECMG 0308/0311 23017G27KT
BECMG 0319/0322 BKN013
TEMPO 0319/0412 7000 RA
PROB30
TEMPO 0400/0412 4000 RADZ BKN008



MET'MAP, la Météo Aéronautique d'un coup d'oeil ! - Copyright ORBIFLY Décembre 2007 - Disclaimer

ORBIFLY MET'MAP TEAM :

Programmation & Développement : Alexandra Zaïnal
Sur une idée originale de : Baudouin d'Aumeries
Assistance à la programmation : Marc-Olivier Méhu
Soutien technique & logistique : Manuel Goepfert

Contact : metmap@orbifly.com




SOURCES & CREDITS :

   NOAA